^^
Datos históricos de la estación: Murcia-Puente Tocinos
Diario Informe para Mayo 31, 2019 Unidades:  Ambas    Inglés   Métrico
Diario Semanal Mensual Anual Configurable
  Máximo: Mínimo: Media:
Temperatura: 77.9 °F /  25.5 °C 60.3 °F /  15.7 °C 68.9 °F /  20.5 °C
Punto de rocio: 54.9 °F /  12.7 °C 46.8 °F /  8.2 °C 51.4 °F /  10.8 °C
Humedad: 77% 35% 56%
Velocidad viento: 13mph /  20.9km/h - 5.4mph /  8.7km/h
Racha viento: 21.9mph /  35.2km/h - -
Viento- - ESE
Presión: 30.2 in /  1024.0 hPa 30.1 in /  1020.5 hPa -
Precipitación: 0 in /  0.0 mm    
Historical Graphs
 
 
Tabla de datos para Mayo 31, 2019
Hora Temperatura Punto de rocio Presión Viento Velocidad viento Racha viento Humedad Intensidad lluvia(por hora) Nubes
00:04 64.2 °F /  17.9 °C 54.7 °F /  12.6 °C 30.2in /  1023.9hPa NE 4mph /  6.4km/h 5.9mph /  9.5km/h 71% 0in /  0.0mm CLR
00:09 64.2 °F /  17.9 °C 54.7 °F /  12.6 °C 30.2in /  1023.9hPa NE 4.3mph /  6.9km/h 4.6mph /  7.4km/h 71% 0in /  0.0mm CLR
00:14 64.2 °F /  17.9 °C 54.7 °F /  12.6 °C 30.2in /  1023.9hPa NE 4.3mph /  6.9km/h 5.8mph /  9.3km/h 71% 0in /  0.0mm CLR
00:19 64.4 °F /  18.0 °C 54.9 °F /  12.7 °C 30.2in /  1023.9hPa NNE 4mph /  6.4km/h 3.5mph /  5.6km/h 71% 0in /  0.0mm CLR
00:24 64.2 °F /  17.9 °C 54.7 °F /  12.6 °C 30.2in /  1023.9hPa NNE 4mph /  6.4km/h 4.7mph /  7.6km/h 71% 0in /  0.0mm CLR
00:29 64.2 °F /  17.9 °C 54.7 °F /  12.6 °C 30.2in /  1023.9hPa NE 3.1mph /  5.0km/h 5.2mph /  8.4km/h 71% 0in /  0.0mm CLR
00:34 64.2 °F /  17.9 °C 54.7 °F /  12.6 °C 30.2in /  1024.0hPa NE 3.1mph /  5.0km/h 4.6mph /  7.4km/h 71% 0in /  0.0mm CLR
00:39 64.2 °F /  17.9 °C 54.7 °F /  12.6 °C 30.2in /  1024.0hPa NE 3.6mph /  5.8km/h 4.6mph /  7.4km/h 71% 0in /  0.0mm CLR
00:44 64 °F /  17.8 °C 54.3 °F /  12.4 °C 30.2in /  1024.0hPa NE 3.6mph /  5.8km/h 4.6mph /  7.4km/h 71% 0in /  0.0mm CLR
00:49 64 °F /  17.8 °C 54.3 °F /  12.4 °C 30.2in /  1023.8hPa NE 4mph /  6.4km/h 5.8mph /  9.3km/h 71% 0in /  0.0mm CLR
00:54 63.9 °F /  17.7 °C 54.7 °F /  12.6 °C 30.2in /  1023.8hPa NNE 4mph /  6.4km/h 5.8mph /  9.3km/h 72% 0in /  0.0mm CLR
00:59 63.9 °F /  17.7 °C 54.7 °F /  12.6 °C 30.2in /  1023.8hPa NE 3.6mph /  5.8km/h 4.6mph /  7.4km/h 72% 0in /  0.0mm CLR
01:04 63.7 °F /  17.6 °C 54.5 °F /  12.5 °C 30.2in /  1023.8hPa NE 3.6mph /  5.8km/h 5.8mph /  9.3km/h 72% 0in /  0.0mm CLR
01:09 63.7 °F /  17.6 °C 54.5 °F /  12.5 °C 30.2in /  1023.8hPa NE 3.6mph /  5.8km/h 4.6mph /  7.4km/h 72% 0in /  0.0mm CLR
01:14 63.7 °F /  17.6 °C 54.5 °F /  12.5 °C 30.2in /  1023.8hPa NE 3.6mph /  5.8km/h 3.5mph /  5.6km/h 72% 0in /  0.0mm CLR
01:19 63.7 °F /  17.6 °C 54.9 °F /  12.7 °C 30.2in /  1023.7hPa NE 2.9mph /  4.7km/h 3.5mph /  5.6km/h 73% 0in /  0.0mm CLR
01:24 63.7 °F /  17.6 °C 54.9 °F /  12.7 °C 30.2in /  1023.7hPa NE 2.9mph /  4.7km/h 3.5mph /  5.6km/h 73% 0in /  0.0mm CLR
01:29 63.5 °F /  17.5 °C 54.7 °F /  12.6 °C 30.2in /  1023.7hPa NE 2mph /  3.2km/h 2.3mph /  3.7km/h 73% 0in /  0.0mm CLR
01:34 63.5 °F /  17.5 °C 54.7 °F /  12.6 °C 30.2in /  1023.8hPa NE 2mph /  3.2km/h 4.6mph /  7.4km/h 73% 0in /  0.0mm CLR
01:39 63.3 °F /  17.4 °C 54.5 °F /  12.5 °C 30.2in /  1023.8hPa NNE 2mph /  3.2km/h 2.3mph /  3.7km/h 73% 0in /  0.0mm CLR
01:44 63.3 °F /  17.4 °C 54.5 °F /  12.5 °C 30.2in /  1023.8hPa ENE 2mph /  3.2km/h 3.5mph /  5.6km/h 73% 0in /  0.0mm CLR
01:49 63.3 °F /  17.4 °C 54.5 °F /  12.5 °C 30.2in /  1023.8hPa NE 1.8mph /  2.9km/h 4.6mph /  7.4km/h 73% 0in /  0.0mm CLR
01:54 63.1 °F /  17.3 °C 54.3 °F /  12.4 °C 30.2in /  1023.8hPa NE 1.8mph /  2.9km/h   73% 0in /  0.0mm CLR
01:59 63.1 °F /  17.3 °C 54.3 °F /  12.4 °C 30.2in /  1023.8hPa East 1.4mph /  2.3km/h 3.1mph /  5.0km/h 73% 0in /  0.0mm CLR
02:04 63 °F /  17.2 °C 54.1 °F /  12.3 °C 30.2in /  1023.7hPa East 1.4mph /  2.3km/h 4.6mph /  7.4km/h 73% 0in /  0.0mm CLR
02:09 62.8 °F /  17.1 °C 54 °F /  12.2 °C 30.2in /  1023.7hPa East 2.4mph /  3.9km/h 2.4mph /  3.9km/h 73% 0in /  0.0mm CLR
02:14 62.4 °F /  16.9 °C 53.6 °F /  12.0 °C 30.2in /  1023.7hPa East 2.4mph /  3.9km/h 3.5mph /  5.6km/h 73% 0in /  0.0mm CLR
02:19 62.4 °F /  16.9 °C 54 °F /  12.2 °C 30.2in /  1023.6hPa East 1.8mph /  2.9km/h   74% 0in /  0.0mm CLR
02:24 62.4 °F /  16.9 °C 54 °F /  12.2 °C 30.2in /  1023.6hPa East 1.8mph /  2.9km/h   74% 0in /  0.0mm CLR
02:29 62.4 °F /  16.9 °C 54 °F /  12.2 °C 30.2in /  1023.6hPa Calm   2.3mph /  3.7km/h 74% 0in /  0.0mm CLR
02:34 62.6 °F /  17.0 °C 54.1 °F /  12.3 °C 30.2in /  1023.5hPa Calm   2.3mph /  3.7km/h 74% 0in /  0.0mm CLR
02:39 62.4 °F /  16.9 °C 54 °F /  12.2 °C 30.2in /  1023.5hPa SE 1.4mph /  2.3km/h   74% 0in /  0.0mm CLR
02:44 62.4 °F /  16.9 °C 54 °F /  12.2 °C 30.2in /  1023.5hPa SE 1.4mph /  2.3km/h   74% 0in /  0.0mm CLR
02:49 62.4 °F /  16.9 °C 54 °F /  12.2 °C 30.2in /  1023.3hPa Calm     74% 0in /  0.0mm CLR
02:54 62.4 °F /  16.9 °C 54 °F /  12.2 °C 30.2in /  1023.3hPa Calm     74% 0in /  0.0mm CLR
02:59 62.4 °F /  16.9 °C 54.3 °F /  12.4 °C 30.2in /  1023.3hPa Calm     75% 0in /  0.0mm CLR
03:04 62.4 °F /  16.9 °C 54.3 °F /  12.4 °C 30.2in /  1023.1hPa Calm     75% 0in /  0.0mm CLR
03:09 62.4 °F /  16.9 °C 54.3 °F /  12.4 °C 30.2in /  1023.1hPa Calm     75% 0in /  0.0mm CLR
03:14 62.4 °F /  16.9 °C 54 °F /  12.2 °C 30.2in /  1023.1hPa Calm     74% 0in /  0.0mm CLR
03:19 62.4 °F /  16.9 °C 54.3 °F /  12.4 °C 30.2in /  1023.0hPa Calm     75% 0in /  0.0mm CLR
03:24 62.4 °F /  16.9 °C 54.3 °F /  12.4 °C 30.2in /  1023.0hPa Calm     75% 0in /  0.0mm CLR
03:29 62.4 °F /  16.9 °C 54.3 °F /  12.4 °C 30.2in /  1023.0hPa Calm     75% 0in /  0.0mm CLR
03:34 62.2 °F /  16.8 °C 54.1 °F /  12.3 °C 30.2in /  1022.8hPa Calm     75% 0in /  0.0mm CLR
03:39 62.4 °F /  16.9 °C 54.3 °F /  12.4 °C 30.2in /  1022.8hPa Calm     75% 0in /  0.0mm CLR
03:44 62.2 °F /  16.8 °C 54.1 °F /  12.3 °C 30.2in /  1022.8hPa Calm   2.4mph /  3.9km/h 75% 0in /  0.0mm CLR
03:49 62.2 °F /  16.8 °C 54.1 °F /  12.3 °C 30.2in /  1022.7hPa Calm   2.9mph /  4.7km/h 75% 0in /  0.0mm CLR
03:54 62.2 °F /  16.8 °C 54.1 °F /  12.3 °C 30.2in /  1022.7hPa Calm   2.3mph /  3.7km/h 75% 0in /  0.0mm CLR
03:59 61.9 °F /  16.6 °C 54 °F /  12.2 °C 30.2in /  1022.7hPa SE 1.8mph /  2.9km/h   75% 0in /  0.0mm CLR
04:04 61.9 °F /  16.6 °C 54.1 °F /  12.3 °C 30.2in /  1022.5hPa SE 1.8mph /  2.9km/h   76% 0in /  0.0mm CLR
04:09 61.7 °F /  16.5 °C 54.1 °F /  12.3 °C 30.2in /  1022.5hPa Calm     76% 0in /  0.0mm CLR
04:14 61.7 °F /  16.5 °C 54.1 °F /  12.3 °C 30.2in /  1022.5hPa Calm     76% 0in /  0.0mm CLR
04:19 61.7 °F /  16.5 °C 53.8 °F /  12.1 °C 30.2in /  1022.4hPa Calm   2.3mph /  3.7km/h 75% 0in /  0.0mm CLR
04:24 61.9 °F /  16.6 °C 53.4 °F /  11.9 °C 30.2in /  1022.4hPa Calm   4.6mph /  7.4km/h 74% 0in /  0.0mm CLR
04:29 61.9 °F /  16.6 °C 53.4 °F /  11.9 °C 30.2in /  1022.4hPa SE 2.9mph /  4.7km/h 4.6mph /  7.4km/h 74% 0in /  0.0mm CLR
04:34 61.7 °F /  16.5 °C 53.2 °F /  11.8 °C 30.2in /  1022.3hPa ESE 2.9mph /  4.7km/h 5.8mph /  9.3km/h 74% 0in /  0.0mm CLR
04:39 61.5 °F /  16.4 °C 53.2 °F /  11.8 °C 30.2in /  1022.3hPa SE 3.1mph /  5.0km/h 5.8mph /  9.3km/h 74% 0in /  0.0mm CLR
04:44 61.2 °F /  16.2 °C 53.2 °F /  11.8 °C 30.2in /  1022.3hPa South 3.1mph /  5.0km/h 5.8mph /  9.3km/h 75% 0in /  0.0mm CLR
04:49 61 °F /  16.1 °C 53.1 °F /  11.7 °C 30.2in /  1022.3hPa South 4mph /  6.4km/h 5.8mph /  9.3km/h 75% 0in /  0.0mm CLR
04:54 61 °F /  16.1 °C 53.4 °F /  11.9 °C 30.2in /  1022.3hPa SSW 4mph /  6.4km/h 5.9mph /  9.5km/h 76% 0in /  0.0mm CLR
04:59 61 °F /  16.1 °C 53.4 °F /  11.9 °C 30.2in /  1022.3hPa SSW 4mph /  6.4km/h 5.8mph /  9.3km/h 76% 0in /  0.0mm CLR
05:04 61 °F /  16.1 °C 53.4 °F /  11.9 °C 30.2in /  1022.3hPa SSW 4mph /  6.4km/h 5.8mph /  9.3km/h 76% 0in /  0.0mm CLR
05:09 61 °F /  16.1 °C 53.4 °F /  11.9 °C 30.2in /  1022.3hPa SSW 4.3mph /  6.9km/h 6.9mph /  11.1km/h 76% 0in /  0.0mm CLR
05:14 61 °F /  16.1 °C 53.4 °F /  11.9 °C 30.2in /  1022.3hPa SSW 4.3mph /  6.9km/h 6.9mph /  11.1km/h 76% 0in /  0.0mm CLR
05:19 61 °F /  16.1 °C 53.4 °F /  11.9 °C 30.2in /  1022.2hPa SSW 5.4mph /  8.7km/h 6.4mph /  10.3km/h 76% 0in /  0.0mm CLR
05:24 61 °F /  16.1 °C 53.4 °F /  11.9 °C 30.2in /  1022.2hPa SSW 5.4mph /  8.7km/h 6.9mph /  11.1km/h 76% 0in /  0.0mm CLR
05:29 61 °F /  16.1 °C 53.4 °F /  11.9 °C 30.2in /  1022.2hPa SW 4.7mph /  7.6km/h 5.8mph /  9.3km/h 76% 0in /  0.0mm CLR
05:34 61 °F /  16.1 °C 53.4 °F /  11.9 °C 30.2in /  1022.1hPa SW 4.7mph /  7.6km/h 6.9mph /  11.1km/h 76% 0in /  0.0mm CLR
05:39 61 °F /  16.1 °C 53.4 °F /  11.9 °C 30.2in /  1022.1hPa SW 4.3mph /  6.9km/h 6.9mph /  11.1km/h 76% 0in /  0.0mm CLR
05:44 61 °F /  16.1 °C 53.4 °F /  11.9 °C 30.2in /  1022.1hPa SW 4.3mph /  6.9km/h 9.2mph /  14.8km/h 76% 0in /  0.0mm CLR
05:49 61 °F /  16.1 °C 53.4 °F /  11.9 °C 30.2in /  1022.0hPa WSW 4.7mph /  7.6km/h 6.9mph /  11.1km/h 76% 0in /  0.0mm CLR
05:54 60.8 °F /  16.0 °C 53.2 °F /  11.8 °C 30.2in /  1022.0hPa SW 4.7mph /  7.6km/h 5.9mph /  9.5km/h 76% 0in /  0.0mm CLR
05:59 60.6 °F /  15.9 °C 53.1 °F /  11.7 °C 30.2in /  1022.0hPa WNW 4mph /  6.4km/h 5.8mph /  9.3km/h 76% 0in /  0.0mm CLR
06:04 60.6 °F /  15.9 °C 53.1 °F /  11.7 °C 30.2in /  1022.0hPa WSW 4mph /  6.4km/h 4.6mph /  7.4km/h 76% 0in /  0.0mm CLR
06:09 60.4 °F /  15.8 °C 52.9 °F /  11.6 °C 30.2in /  1022.0hPa West 3.6mph /  5.8km/h 5.8mph /  9.3km/h 76% 0in /  0.0mm CLR
06:14 60.4 °F /  15.8 °C 53.2 °F /  11.8 °C 30.2in /  1022.0hPa WSW 3.6mph /  5.8km/h 5.8mph /  9.3km/h 77% 0in /  0.0mm CLR
06:19 60.4 °F /  15.8 °C 53.2 °F /  11.8 °C 30.2in /  1022.1hPa WSW 3.6mph /  5.8km/h 4.6mph /  7.4km/h 77% 0in /  0.0mm CLR
06:24 60.4 °F /  15.8 °C 53.2 °F /  11.8 °C 30.2in /  1022.1hPa WSW 3.6mph /  5.8km/h 3.5mph /  5.6km/h 77% 0in /  0.0mm CLR
06:29 60.4 °F /  15.8 °C 52.9 °F /  11.6 °C 30.2in /  1022.1hPa WSW 2.9mph /  4.7km/h 4.6mph /  7.4km/h 76% 0in /  0.0mm CLR
06:34 60.3 °F /  15.7 °C 52.7 °F /  11.5 °C 30.2in /  1022.2hPa WSW 2.9mph /  4.7km/h 3.6mph /  5.8km/h 76% 0in /  0.0mm CLR
06:39 60.3 °F /  15.7 °C 52.7 °F /  11.5 °C 30.2in /  1022.2hPa WSW 3.6mph /  5.8km/h 4.6mph /  7.4km/h 76% 0in /  0.0mm CLR
06:44 60.3 °F /  15.7 °C 52.7 °F /  11.5 °C 30.2in /  1022.2hPa SW 3.6mph /  5.8km/h 4.6mph /  7.4km/h 76% 0in /  0.0mm CLR
06:49 60.3 °F /  15.7 °C 52.7 °F /  11.5 °C 30.2in /  1022.4hPa SW 3.6mph /  5.8km/h 6.9mph /  11.1km/h 76% 0in /  0.0mm CLR
06:54 60.3 °F /  15.7 °C 52.7 °F /  11.5 °C 30.2in /  1022.4hPa SW 3.6mph /  5.8km/h 6.9mph /  11.1km/h 76% 0in /  0.0mm CLR
06:59 60.3 °F /  15.7 °C 52.3 °F /  11.3 °C 30.2in /  1022.4hPa SW 4.7mph /  7.6km/h 5.8mph /  9.3km/h 75% 0in /  0.0mm CLR
07:04 60.3 °F /  15.7 °C 52.3 °F /  11.3 °C 30.2in /  1022.4hPa WSW 4.7mph /  7.6km/h 4.6mph /  7.4km/h 75% 0in /  0.0mm CLR
07:09 60.4 °F /  15.8 °C 52.5 °F /  11.4 °C 30.2in /  1022.4hPa West 3.6mph /  5.8km/h 4.6mph /  7.4km/h 75% 0in /  0.0mm CLR
07:14 60.3 °F /  15.7 °C 52 °F /  11.1 °C 30.2in /  1022.4hPa WSW 3.6mph /  5.8km/h 4.6mph /  7.4km/h 74% 0in /  0.0mm CLR
07:19 60.3 °F /  15.7 °C 52.3 °F /  11.3 °C 30.2in /  1022.6hPa WSW 3.6mph /  5.8km/h 4.7mph /  7.6km/h 75% 0in /  0.0mm CLR
07:24 60.3 °F /  15.7 °C 52.3 °F /  11.3 °C 30.2in /  1022.6hPa SW 3.6mph /  5.8km/h 4.6mph /  7.4km/h 75% 0in /  0.0mm CLR
07:29 60.6 °F /  15.9 °C 52.3 °F /  11.3 °C 30.2in /  1022.6hPa WSW 2.9mph /  4.7km/h 4.6mph /  7.4km/h 74% 0in /  0.0mm CLR
07:34 60.6 °F /  15.9 °C 52.5 °F /  11.4 °C 30.2in /  1022.6hPa SW 2.9mph /  4.7km/h 4.6mph /  7.4km/h 75% 0in /  0.0mm CLR
07:39 60.8 °F /  16.0 °C 52.5 °F /  11.4 °C 30.2in /  1022.6hPa WSW 2.9mph /  4.7km/h 3.6mph /  5.8km/h 74% 0in /  0.0mm CLR
07:44 61 °F /  16.1 °C 52.5 °F /  11.4 °C 30.2in /  1022.6hPa WSW 2.9mph /  4.7km/h 4.6mph /  7.4km/h 74% 0in /  0.0mm CLR
07:49 61.2 °F /  16.2 °C 52.9 °F /  11.6 °C 30.2in /  1022.8hPa WSW 2.4mph /  3.9km/h 3.6mph /  5.8km/h 74% 0in /  0.0mm CLR
07:54 61.2 °F /  16.2 °C 52.9 °F /  11.6 °C 30.2in /  1022.8hPa WNW 2.4mph /  3.9km/h 4.7mph /  7.6km/h 74% 0in /  0.0mm CLR
07:59 61.3 °F /  16.3 °C 53.1 °F /  11.7 °C 30.2in /  1022.8hPa West 2.9mph /  4.7km/h 4.6mph /  7.4km/h 74% 0in /  0.0mm CLR
08:04 61.3 °F /  16.3 °C 53.1 °F /  11.7 °C 30.2in /  1022.9hPa West 2.9mph /  4.7km/h 4.6mph /  7.4km/h 74% 0in /  0.0mm CLR
08:09 61.5 °F /  16.4 °C 52.9 °F /  11.6 °C 30.2in /  1022.9hPa SW 3.6mph /  5.8km/h 5.8mph /  9.3km/h 73% 0in /  0.0mm CLR
08:14 61.9 °F /  16.6 °C 52.9 °F /  11.6 °C 30.2in /  1022.9hPa WSW 3.6mph /  5.8km/h 4.6mph /  7.4km/h 72% 0in /  0.0mm CLR
08:19 62.1 °F /  16.7 °C 52.5 °F /  11.4 °C 30.2in /  1022.8hPa SSW 4mph /  6.4km/h 5.8mph /  9.3km/h 71% 0in /  0.0mm CLR
08:24 62.1 °F /  16.7 °C 52.9 °F /  11.6 °C 30.2in /  1022.8hPa SW 4mph /  6.4km/h 4.7mph /  7.6km/h 72% 0in /  0.0mm CLR
08:29 62.2 °F /  16.8 °C 52.7 °F /  11.5 °C 30.2in /  1022.8hPa South 4mph /  6.4km/h 4.6mph /  7.4km/h 71% 0in /  0.0mm CLR
08:34 62.4 °F /  16.9 °C 52.5 °F /  11.4 °C 30.2in /  1022.8hPa WSW 4mph /  6.4km/h 5.2mph /  8.4km/h 70% 0in /  0.0mm CLR
08:39 62.6 °F /  17.0 °C 52.7 °F /  11.5 °C 30.2in /  1022.8hPa SW 3.6mph /  5.8km/h 5.8mph /  9.3km/h 70% 0in /  0.0mm CLR
08:44 63 °F /  17.2 °C 52.5 °F /  11.4 °C 30.2in /  1022.8hPa WSW 3.6mph /  5.8km/h 6.4mph /  10.3km/h 69% 0in /  0.0mm CLR
08:49 63.1 °F /  17.3 °C 52.9 °F /  11.6 °C 30.2in /  1022.8hPa SSW 4mph /  6.4km/h 5.8mph /  9.3km/h 69% 0in /  0.0mm CLR
08:54 63.5 °F /  17.5 °C 53.1 °F /  11.7 °C 30.2in /  1022.8hPa SW 4mph /  6.4km/h 4.6mph /  7.4km/h 69% 0in /  0.0mm CLR
08:59 63.9 °F /  17.7 °C 53.1 °F /  11.7 °C 30.2in /  1022.8hPa NW 3.1mph /  5.0km/h 4.7mph /  7.6km/h 68% 0in /  0.0mm CLR
09:04 64.2 °F /  17.9 °C 53.1 °F /  11.7 °C 30.2in /  1022.8hPa WSW 3.1mph /  5.0km/h 5.9mph /  9.5km/h 67% 0in /  0.0mm CLR
09:09 64.2 °F /  17.9 °C 52.5 °F /  11.4 °C 30.2in /  1022.8hPa WSW 4.3mph /  6.9km/h 6.9mph /  11.1km/h 66% 0in /  0.0mm CLR
09:14 64.4 °F /  18.0 °C 53.2 °F /  11.8 °C 30.2in /  1022.8hPa WSW 4.3mph /  6.9km/h 5.8mph /  9.3km/h 67% 0in /  0.0mm CLR
09:19 64.6 °F /  18.1 °C 52.5 °F /  11.4 °C 30.2in /  1022.9hPa West 4.3mph /  6.9km/h 4.6mph /  7.4km/h 65% 0in /  0.0mm CLR
09:24 64.9 °F /  18.3 °C 53.2 °F /  11.8 °C 30.2in /  1022.9hPa South 4.3mph /  6.9km/h 4.7mph /  7.6km/h 66% 0in /  0.0mm CLR
09:29 65.5 °F /  18.6 °C 53.1 °F /  11.7 °C 30.2in /  1022.9hPa South 3.6mph /  5.8km/h 6.9mph /  11.1km/h 64% 0in /  0.0mm CLR
09:34 65.5 °F /  18.6 °C 53.1 °F /  11.7 °C 30.2in /  1023.0hPa SSE 3.6mph /  5.8km/h 5.8mph /  9.3km/h 64% 0in /  0.0mm CLR
09:39 65.8 °F /  18.8 °C 53.2 °F /  11.8 °C 30.2in /  1023.0hPa SSW 4mph /  6.4km/h 4.6mph /  7.4km/h 64% 0in /  0.0mm CLR
09:44 66.2 °F /  19.0 °C 53.2 °F /  11.8 °C 30.2in /  1023.0hPa SSW 4mph /  6.4km/h 4.7mph /  7.6km/h 63% 0in /  0.0mm CLR
09:49 66.4 °F /  19.1 °C 53.1 °F /  11.7 °C 30.2in /  1023.1hPa SSW 3.6mph /  5.8km/h 5.8mph /  9.3km/h 62% 0in /  0.0mm CLR
09:54 66.6 °F /  19.2 °C 53.1 °F /  11.7 °C 30.2in /  1023.1hPa WNW 3.6mph /  5.8km/h 5.8mph /  9.3km/h 62% 0in /  0.0mm CLR
09:59 66.6 °F /  19.2 °C 53.1 °F /  11.7 °C 30.2in /  1023.1hPa SW 4.3mph /  6.9km/h 4.6mph /  7.4km/h 62% 0in /  0.0mm CLR
10:04 67.3 °F /  19.6 °C 53.4 °F /  11.9 °C 30.2in /  1023.1hPa SE 4.3mph /  6.9km/h 4.6mph /  7.4km/h 61% 0in /  0.0mm CLR
10:09 67.8 °F /  19.9 °C 53.1 °F /  11.7 °C 30.2in /  1023.1hPa NW 1.8mph /  2.9km/h 3.5mph /  5.6km/h 59% 0in /  0.0mm CLR
10:14 68.4 °F /  20.2 °C 53.1 °F /  11.7 °C 30.2in /  1023.1hPa WSW 1.8mph /  2.9km/h 5.4mph /  8.7km/h 58% 0in /  0.0mm CLR
10:19 68.4 °F /  20.2 °C 52.5 °F /  11.4 °C 30.2in /  1023.0hPa SSW 3.1mph /  5.0km/h 4.6mph /  7.4km/h 57% 0in /  0.0mm CLR
10:24 68.9 °F /  20.5 °C 52.2 °F /  11.2 °C 30.2in /  1023.0hPa SSE 3.1mph /  5.0km/h 4.6mph /  7.4km/h 55% 0in /  0.0mm CLR
10:29 69.6 °F /  20.9 °C 52.2 °F /  11.2 °C 30.2in /  1023.0hPa SSE 1.8mph /  2.9km/h 2.9mph /  4.7km/h 54% 0in /  0.0mm CLR
10:34 70 °F /  21.1 °C 51.4 °F /  10.8 °C 30.2in /  1022.9hPa SSW 1.8mph /  2.9km/h 1.2mph /  1.9km/h 52% 0in /  0.0mm CLR
10:39 70.7 °F /  21.5 °C 51.6 °F /  10.9 °C 30.2in /  1022.9hPa East 1.4mph /  2.3km/h 4.6mph /  7.4km/h 51% 0in /  0.0mm CLR
10:44 71.4 °F /  21.9 °C 51.3 °F /  10.7 °C 30.2in /  1022.9hPa East 1.4mph /  2.3km/h 4.3mph /  6.9km/h 49% 0in /  0.0mm CLR
10:49 72.1 °F /  22.3 °C 51.4 °F /  10.8 °C 30.2in /  1022.8hPa NE 1.8mph /  2.9km/h 3.1mph /  5.0km/h 48% 0in /  0.0mm CLR
10:54 72.5 °F /  22.5 °C 50.5 °F /  10.3 °C 30.2in /  1022.8hPa NW 1.8mph /  2.9km/h 5.8mph /  9.3km/h 46% 0in /  0.0mm CLR
10:59 72.7 °F /  22.6 °C 50.7 °F /  10.4 °C 30.2in /  1022.8hPa East 2.4mph /  3.9km/h 5.8mph /  9.3km/h 46% 0in /  0.0mm CLR
11:04 72.7 °F /  22.6 °C 50.2 °F /  10.1 °C 30.2in /  1022.9hPa NNW 2.4mph /  3.9km/h 5.8mph /  9.3km/h 45% 0in /  0.0mm CLR
11:09 72.3 °F /  22.4 °C 51.1 °F /  10.6 °C 30.2in /  1022.9hPa NNE 3.1mph /  5.0km/h 5.2mph /  8.4km/h 47% 0in /  0.0mm CLR
11:14 72.3 °F /  22.4 °C 50.4 °F /  10.2 °C 30.2in /  1022.9hPa NNE 3.1mph /  5.0km/h 6.9mph /  11.1km/h 46% 0in /  0.0mm CLR
11:19 72.5 °F /  22.5 °C 49.8 °F /  9.9 °C 30.2in /  1022.9hPa ESE 4.3mph /  6.9km/h 4.7mph /  7.6km/h 45% 0in /  0.0mm CLR
11:24 72.9 °F /  22.7 °C 49.1 °F /  9.5 °C 30.2in /  1022.9hPa East 4.3mph /  6.9km/h 5.8mph /  9.3km/h 43% 0in /  0.0mm CLR
11:29 73.2 °F /  22.9 °C 50 °F /  10.0 °C 30.2in /  1022.9hPa ENE 4.3mph /  6.9km/h 8.1mph /  13.0km/h 44% 0in /  0.0mm CLR
11:34 73.2 °F /  22.9 °C 48.7 °F /  9.3 °C 30.2in /  1022.7hPa ENE 4.3mph /  6.9km/h 12.7mph /  20.4km/h 42% 0in /  0.0mm CLR
11:39 73.4 °F /  23.0 °C 46.9 °F /  8.3 °C 30.2in /  1022.7hPa ENE 6.9mph /  11.1km/h 12.5mph /  20.1km/h 39% 0in /  0.0mm CLR
11:44 73.2 °F /  22.9 °C 47.5 °F /  8.6 °C 30.2in /  1022.7hPa ENE 6.9mph /  11.1km/h 13.8mph /  22.2km/h 40% 0in /  0.0mm CLR
11:49 73.8 °F /  23.2 °C 48.6 °F /  9.2 °C 30.2in /  1022.7hPa NE 8.1mph /  13.0km/h 10.4mph /  16.7km/h 41% 0in /  0.0mm CLR
11:54 73.9 °F /  23.3 °C 48 °F /  8.9 °C 30.2in /  1022.7hPa ENE 8.1mph /  13.0km/h 10.4mph /  16.7km/h 40% 0in /  0.0mm CLR
11:59 73.8 °F /  23.2 °C 48.6 °F /  9.2 °C 30.2in /  1022.7hPa East 8.1mph /  13.0km/h 11.5mph /  18.5km/h 41% 0in /  0.0mm CLR
12:04 73.9 °F /  23.3 °C 48.7 °F /  9.3 °C 30.2in /  1022.8hPa NE 8.1mph /  13.0km/h 10.4mph /  16.7km/h 41% 0in /  0.0mm CLR
12:09 74.5 °F /  23.6 °C 48.6 °F /  9.2 °C 30.2in /  1022.8hPa ESE 7.6mph /  12.2km/h 9.2mph /  14.8km/h 40% 0in /  0.0mm CLR
12:14 74.8 °F /  23.8 °C 48.2 °F /  9.0 °C 30.2in /  1022.8hPa ENE 7.6mph /  12.2km/h 15mph /  24.1km/h 39% 0in /  0.0mm CLR
12:19 74.7 °F /  23.7 °C 48.7 °F /  9.3 °C 30.2in /  1022.7hPa NNE 6.2mph /  10.0km/h 10.4mph /  16.7km/h 40% 0in /  0.0mm CLR
12:24 74.8 °F /  23.8 °C 48.9 °F /  9.4 °C 30.2in /  1022.7hPa WNW 6.2mph /  10.0km/h 6.4mph /  10.3km/h 40% 0in /  0.0mm CLR
12:29 75.6 °F /  24.2 °C 48.9 °F /  9.4 °C 30.2in /  1022.7hPa ENE 4.3mph /  6.9km/h 5.8mph /  9.3km/h 39% 0in /  0.0mm CLR
12:34 75.9 °F /  24.4 °C 48.6 °F /  9.2 °C 30.2in /  1022.5hPa ENE 4.3mph /  6.9km/h 10mph /  16.1km/h 38% 0in /  0.0mm CLR
12:39 75.9 °F /  24.4 °C 46.9 °F /  8.3 °C 30.2in /  1022.5hPa East 5.9mph /  9.5km/h 10.4mph /  16.7km/h 36% 0in /  0.0mm CLR
12:44 75.7 °F /  24.3 °C 46.9 °F /  8.3 °C 30.2in /  1022.5hPa NE 5.9mph /  9.5km/h 13.8mph /  22.2km/h 36% 0in /  0.0mm CLR
12:49 75.6 °F /  24.2 °C 47.5 °F /  8.6 °C 30.2in /  1022.4hPa East 6.9mph /  11.1km/h 11.5mph /  18.5km/h 37% 0in /  0.0mm CLR
12:54 76.1 °F /  24.5 °C 47.1 °F /  8.4 °C 30.2in /  1022.4hPa NE 6.9mph /  11.1km/h 11.5mph /  18.5km/h 36% 0in /  0.0mm CLR
12:59 76.1 °F /  24.5 °C 47.8 °F /  8.8 °C 30.2in /  1022.4hPa NE 7.4mph /  11.9km/h 13.8mph /  22.2km/h 37% 0in /  0.0mm CLR
13:04 76.5 °F /  24.7 °C 48.2 °F /  9.0 °C 30.2in /  1022.4hPa ESE 7.4mph /  11.9km/h 8.1mph /  13.0km/h 37% 0in /  0.0mm CLR
13:09 76.6 °F /  24.8 °C 49.1 °F /  9.5 °C 30.2in /  1022.4hPa NW 5.9mph /  9.5km/h 16.1mph /  25.9km/h 38% 0in /  0.0mm CLR
13:14 76.8 °F /  24.9 °C 49.3 °F /  9.6 °C 30.2in /  1022.4hPa NE 5.9mph /  9.5km/h 11.5mph /  18.5km/h 38% 0in /  0.0mm CLR
13:19 76.6 °F /  24.8 °C 47.7 °F /  8.7 °C 30.2in /  1022.3hPa WNW 8.7mph /  14.0km/h 13.8mph /  22.2km/h 36% 0in /  0.0mm CLR
13:24 76.6 °F /  24.8 °C 49.1 °F /  9.5 °C 30.2in /  1022.3hPa ENE 8.7mph /  14.0km/h 16.1mph /  25.9km/h 38% 0in /  0.0mm CLR
13:29 76.3 °F /  24.6 °C 48.7 °F /  9.3 °C 30.2in /  1022.3hPa North 9.2mph /  14.8km/h 11.2mph /  18.0km/h 38% 0in /  0.0mm CLR
13:34 76.5 °F /  24.7 °C 48.2 °F /  9.0 °C 30.2in /  1022.2hPa NE 9.2mph /  14.8km/h 13.8mph /  22.2km/h 37% 0in /  0.0mm CLR
13:39 76.5 °F /  24.7 °C 46.8 °F /  8.2 °C 30.2in /  1022.2hPa NE 7.4mph /  11.9km/h 14.5mph /  23.3km/h 35% 0in /  0.0mm CLR
13:44 76.5 °F /  24.7 °C 48.2 °F /  9.0 °C 30.2in /  1022.2hPa ENE 7.4mph /  11.9km/h 13.8mph /  22.2km/h 37% 0in /  0.0mm CLR
13:49 76.5 °F /  24.7 °C 48.2 °F /  9.0 °C 30.2in /  1022.1hPa North 10mph /  16.1km/h 12.7mph /  20.4km/h 37% 0in /  0.0mm CLR
13:54 76.8 °F /  24.9 °C 48.6 °F /  9.2 °C 30.2in /  1022.1hPa NE 10mph /  16.1km/h 15mph /  24.1km/h 37% 0in /  0.0mm CLR
13:59 76.6 °F /  24.8 °C 48.4 °F /  9.1 °C 30.2in /  1022.1hPa ENE 8.5mph /  13.7km/h 13.8mph /  22.2km/h 37% 0in /  0.0mm CLR
14:04 76.5 °F /  24.7 °C 48.9 °F /  9.4 °C 30.2in /  1021.9hPa ENE 8.5mph /  13.7km/h 12.7mph /  20.4km/h 38% 0in /  0.0mm CLR
14:09 76.6 °F /  24.8 °C 49.1 °F /  9.5 °C 30.2in /  1021.9hPa NE 8.7mph /  14.0km/h 13.8mph /  22.2km/h 38% 0in /  0.0mm CLR
14:14 76.6 °F /  24.8 °C 49.1 °F /  9.5 °C 30.2in /  1021.9hPa NE 8.7mph /  14.0km/h 14.5mph /  23.3km/h 38% 0in /  0.0mm CLR
14:19 76.5 °F /  24.7 °C 48.9 °F /  9.4 °C 30.2in /  1021.9hPa ENE 10mph /  16.1km/h 18.4mph /  29.6km/h 38% 0in /  0.0mm CLR
14:24 76.6 °F /  24.8 °C 49.1 °F /  9.5 °C 30.2in /  1021.9hPa NE 10mph /  16.1km/h 16.1mph /  25.9km/h 38% 0in /  0.0mm CLR
14:29 77 °F /  25.0 °C 50.2 °F /  10.1 °C 30.2in /  1021.9hPa ESE 9.2mph /  14.8km/h 12.5mph /  20.1km/h 39% 0in /  0.0mm CLR
14:34 76.8 °F /  24.9 °C 50 °F /  10.0 °C 30.2in /  1021.8hPa East 9.2mph /  14.8km/h 12.7mph /  20.4km/h 39% 0in /  0.0mm CLR
14:39 77 °F /  25.0 °C 50.2 °F /  10.1 °C 30.2in /  1021.8hPa ENE 8.7mph /  14.0km/h 16.8mph /  27.0km/h 39% 0in /  0.0mm CLR
14:44 76.8 °F /  24.9 °C 50 °F /  10.0 °C 30.2in /  1021.8hPa ENE 8.7mph /  14.0km/h 13.8mph /  22.2km/h 39% 0in /  0.0mm CLR
14:49 76.6 °F /  24.8 °C 50.5 °F /  10.3 °C 30.2in /  1021.6hPa ESE 10.2mph /  16.4km/h 13.7mph /  22.0km/h 40% 0in /  0.0mm CLR
14:54 77 °F /  25.0 °C 50.7 °F /  10.4 °C 30.2in /  1021.6hPa NNE 10.2mph /  16.4km/h 15mph /  24.1km/h 40% 0in /  0.0mm CLR
14:59 76.8 °F /  24.9 °C 51.3 °F /  10.7 °C 30.2in /  1021.6hPa NNE 8.7mph /  14.0km/h 19.7mph /  31.7km/h 41% 0in /  0.0mm CLR
15:04 77.2 °F /  25.1 °C 51.1 °F /  10.6 °C 30.2in /  1021.6hPa East 8.7mph /  14.0km/h 13.8mph /  22.2km/h 40% 0in /  0.0mm CLR
15:09 77.2 °F /  25.1 °C 51.1 °F /  10.6 °C 30.2in /  1021.6hPa ENE 10mph /  16.1km/h 12.7mph /  20.4km/h 40% 0in /  0.0mm CLR
15:14 76.8 °F /  24.9 °C 50 °F /  10.0 °C 30.2in /  1021.6hPa ENE 10mph /  16.1km/h 15.6mph /  25.1km/h 39% 0in /  0.0mm CLR
15:19 76.8 °F /  24.9 °C 50 °F /  10.0 °C 30.2in /  1021.4hPa NNE 11.2mph /  18.0km/h 18.4mph /  29.6km/h 39% 0in /  0.0mm CLR
15:24 76.8 °F /  24.9 °C 50.7 °F /  10.4 °C 30.2in /  1021.4hPa NE 11.2mph /  18.0km/h 18.4mph /  29.6km/h 40% 0in /  0.0mm CLR
15:29 76.6 °F /  24.8 °C 49.8 °F /  9.9 °C 30.2in /  1021.4hPa ENE 12.3mph /  19.8km/h 17mph /  27.4km/h 39% 0in /  0.0mm CLR
15:34 76.8 °F /  24.9 °C 50.7 °F /  10.4 °C 30.2in /  1021.4hPa NNE 12.3mph /  19.8km/h 12.3mph /  19.8km/h 40% 0in /  0.0mm CLR
15:39 77.7 °F /  25.4 °C 49.5 °F /  9.7 °C 30.2in /  1021.4hPa NNE 8.7mph /  14.0km/h 16.1mph /  25.9km/h 37% 0in /  0.0mm CLR
15:44 77.9 °F /  25.5 °C 48.7 °F /  9.3 °C 30.2in /  1021.4hPa NE 8.7mph /  14.0km/h 13.8mph /  22.2km/h 36% 0in /  0.0mm CLR
15:49 77.2 °F /  25.1 °C 48.9 °F /  9.4 °C 30.2in /  1021.3hPa ENE 8.1mph /  13.0km/h 13.8mph /  22.2km/h 37% 0in /  0.0mm CLR
15:54 77 °F /  25.0 °C 50.2 °F /  10.1 °C 30.2in /  1021.3hPa NNE 8.1mph /  13.0km/h 16.1mph /  25.9km/h 39% 0in /  0.0mm CLR
15:59 77.4 °F /  25.2 °C 49.8 °F /  9.9 °C 30.2in /  1021.3hPa NNE 10.2mph /  16.4km/h 13.8mph /  22.2km/h 38% 0in /  0.0mm CLR
16:04 77.2 °F /  25.1 °C 50.4 °F /  10.2 °C 30.2in /  1021.2hPa ENE 10.2mph /  16.4km/h 15mph /  24.1km/h 39% 0in /  0.0mm CLR
16:09 76.6 °F /  24.8 °C 49.8 °F /  9.9 °C 30.2in /  1021.2hPa NE 9.7mph /  15.6km/h 21.9mph /  35.2km/h 39% 0in /  0.0mm CLR
16:14 77.2 °F /  25.1 °C 50.4 °F /  10.2 °C 30.2in /  1021.2hPa NE 9.7mph /  15.6km/h 11.5mph /  18.5km/h 39% 0in /  0.0mm CLR
16:19 77.4 °F /  25.2 °C 49.8 °F /  9.9 °C 30.2in /  1021.1hPa NNE 9.7mph /  15.6km/h 17.3mph /  27.8km/h 38% 0in /  0.0mm CLR
16:24 76.6 °F /  24.8 °C 49.1 °F /  9.5 °C 30.2in /  1021.1hPa NE 9.7mph /  15.6km/h 18.4mph /  29.6km/h 38% 0in /  0.0mm CLR
16:29 76.5 °F /  24.7 °C 50.4 °F /  10.2 °C 30.2in /  1021.1hPa NW 13mph /  20.9km/h 16.8mph /  27.0km/h 40% 0in /  0.0mm CLR
16:34 76.6 °F /  24.8 °C 49.8 °F /  9.9 °C 30.2in /  1021.1hPa NE 13mph /  20.9km/h 15mph /  24.1km/h 39% 0in /  0.0mm CLR
16:39 76.6 °F /  24.8 °C 49.8 °F /  9.9 °C 30.2in /  1021.1hPa NW 10mph /  16.1km/h 13.8mph /  22.2km/h 39% 0in /  0.0mm CLR
16:44 77.2 °F /  25.1 °C 49.6 °F /  9.8 °C 30.2in /  1021.1hPa North 10mph /  16.1km/h 17.3mph /  27.8km/h 38% 0in /  0.0mm CLR
16:49 76.5 °F /  24.7 °C 49.6 °F /  9.8 °C 30.2in /  1021.0hPa NE 9.7mph /  15.6km/h 16.1mph /  25.9km/h 39% 0in /  0.0mm CLR
16:54 76.3 °F /  24.6 °C 48.7 °F /  9.3 °C 30.2in /  1021.0hPa East 9.7mph /  15.6km/h 16.1mph /  25.9km/h 38% 0in /  0.0mm CLR
16:59 76.1 °F /  24.5 °C 49.3 °F /  9.6 °C 30.2in /  1021.0hPa ENE 10.7mph /  17.2km/h 18.4mph /  29.6km/h 39% 0in /  0.0mm CLR
17:04 76.3 °F /  24.6 °C 48.7 °F /  9.3 °C 30.2in /  1020.9hPa NE 10.7mph /  17.2km/h 17.3mph /  27.8km/h 38% 0in /  0.0mm CLR
17:09 75.9 °F /  24.4 °C 48.6 °F /  9.2 °C 30.2in /  1020.9hPa NNE 10mph /  16.1km/h 16.1mph /  25.9km/h 38% 0in /  0.0mm CLR
17:14 75.7 °F /  24.3 °C 48.9 °F /  9.4 °C 30.2in /  1020.9hPa NE 10mph /  16.1km/h 14.5mph /  23.3km/h 39% 0in /  0.0mm CLR
17:19 75.9 °F /  24.4 °C 48.6 °F /  9.2 °C 30.2in /  1020.9hPa ENE 10.2mph /  16.4km/h 11.5mph /  18.5km/h 38% 0in /  0.0mm CLR
17:24 76.5 °F /  24.7 °C 48.2 °F /  9.0 °C 30.2in /  1020.9hPa NE 10.2mph /  16.4km/h 17.5mph /  28.2km/h 37% 0in /  0.0mm CLR
17:29 75.7 °F /  24.3 °C 48.4 °F /  9.1 °C 30.2in /  1020.9hPa NNE 10.7mph /  17.2km/h 13.8mph /  22.2km/h 38% 0in /  0.0mm CLR
17:34 75.7 °F /  24.3 °C 48.4 °F /  9.1 °C 30.1in /  1020.8hPa ENE 10.7mph /  17.2km/h 17.3mph /  27.8km/h 38% 0in /  0.0mm CLR
17:39 75.6 °F /  24.2 °C 48.2 °F /  9.0 °C 30.1in /  1020.8hPa NE 10.2mph /  16.4km/h 18.4mph /  29.6km/h 38% 0in /  0.0mm CLR
17:44 75.9 °F /  24.4 °C 48.6 °F /  9.2 °C 30.1in /  1020.8hPa NE 10.2mph /  16.4km/h 15.2mph /  24.5km/h 38% 0in /  0.0mm CLR
17:49 75.6 °F /  24.2 °C 47.5 °F /  8.6 °C 30.1in /  1020.8hPa East 10.2mph /  16.4km/h 18.4mph /  29.6km/h 37% 0in /  0.0mm CLR
17:54 75.6 °F /  24.2 °C 48.2 °F /  9.0 °C 30.1in /  1020.8hPa ESE 10.2mph /  16.4km/h 10.4mph /  16.7km/h 38% 0in /  0.0mm CLR
17:59 75.6 °F /  24.2 °C 49.5 °F /  9.7 °C 30.1in /  1020.8hPa North 9.7mph /  15.6km/h 13.8mph /  22.2km/h 40% 0in /  0.0mm CLR
18:04 75.6 °F /  24.2 °C 49.5 °F /  9.7 °C 30.1in /  1020.7hPa NNE 9.7mph /  15.6km/h 13.8mph /  22.2km/h 40% 0in /  0.0mm CLR
18:09 75.9 °F /  24.4 °C 49.3 °F /  9.6 °C 30.1in /  1020.7hPa East 8.7mph /  14.0km/h 12.5mph /  20.1km/h 39% 0in /  0.0mm CLR
18:14 75.4 °F /  24.1 °C 50 °F /  10.0 °C 30.1in /  1020.7hPa NE 8.7mph /  14.0km/h 17.3mph /  27.8km/h 41% 0in /  0.0mm CLR
18:19 75 °F /  23.9 °C 49.1 °F /  9.5 °C 30.1in /  1020.6hPa ENE 10.7mph /  17.2km/h 16.1mph /  25.9km/h 40% 0in /  0.0mm CLR
18:24 75 °F /  23.9 °C 50.4 °F /  10.2 °C 30.1in /  1020.6hPa ESE 10.7mph /  17.2km/h 17.3mph /  27.8km/h 42% 0in /  0.0mm CLR
18:29 74.8 °F /  23.8 °C 50.2 °F /  10.1 °C 30.1in /  1020.6hPa NE 10.2mph /  16.4km/h 11.5mph /  18.5km/h 42% 0in /  0.0mm CLR
18:34 74.8 °F /  23.8 °C 50.2 °F /  10.1 °C 30.1in /  1020.7hPa North 10.2mph /  16.4km/h 16.1mph /  25.9km/h 42% 0in /  0.0mm CLR
18:39 74.8 °F /  23.8 °C 49.6 °F /  9.8 °C 30.1in /  1020.7hPa NNE 10.2mph /  16.4km/h 20.7mph /  33.3km/h 41% 0in /  0.0mm CLR
18:44 75 °F /  23.9 °C 49.6 °F /  9.8 °C 30.1in /  1020.7hPa NNE 10.2mph /  16.4km/h 15mph /  24.1km/h 41% 0in /  0.0mm CLR
18:49 74.7 °F /  23.7 °C 50 °F /  10.0 °C 30.1in /  1020.5hPa ENE 10.7mph /  17.2km/h 15mph /  24.1km/h 42% 0in /  0.0mm CLR
18:54 74.7 °F /  23.7 °C 50 °F /  10.0 °C 30.1in /  1020.5hPa ENE 10.7mph /  17.2km/h 15mph /  24.1km/h 42% 0in /  0.0mm CLR
18:59 75 °F /  23.9 °C 49.6 °F /  9.8 °C 30.1in /  1020.5hPa ENE 8.7mph /  14.0km/h 11.5mph /  18.5km/h 41% 0in /  0.0mm CLR
19:04 75 °F /  23.9 °C 49.6 °F /  9.8 °C 30.1in /  1020.5hPa NNE 8.7mph /  14.0km/h 11.5mph /  18.5km/h 41% 0in /  0.0mm CLR
19:09 74.8 °F /  23.8 °C 50.7 °F /  10.4 °C 30.1in /  1020.5hPa NE 7.6mph /  12.2km/h 16.8mph /  27.0km/h 43% 0in /  0.0mm CLR
19:14 74.5 °F /  23.6 °C 50.5 °F /  10.3 °C 30.1in /  1020.5hPa ENE 7.6mph /  12.2km/h 12.7mph /  20.4km/h 43% 0in /  0.0mm CLR
19:19 74.7 °F /  23.7 °C 51.3 °F /  10.7 °C 30.1in /  1020.5hPa NNE 9.2mph /  14.8km/h 10.7mph /  17.2km/h 44% 0in /  0.0mm CLR
19:24 74.7 °F /  23.7 °C 51.3 °F /  10.7 °C 30.1in /  1020.5hPa NE 9.2mph /  14.8km/h 10.4mph /  16.7km/h 44% 0in /  0.0mm CLR
19:29 74.8 °F /  23.8 °C 51.4 °F /  10.8 °C 30.1in /  1020.5hPa East 7.4mph /  11.9km/h 10mph /  16.1km/h 44% 0in /  0.0mm CLR
19:34 74.5 °F /  23.6 °C 50.5 °F /  10.3 °C 30.1in /  1020.5hPa NE 7.4mph /  11.9km/h 12.7mph /  20.4km/h 43% 0in /  0.0mm CLR
19:39 74.1 °F /  23.4 °C 50.2 °F /  10.1 °C 30.1in /  1020.5hPa NNE 8.1mph /  13.0km/h 13mph /  20.9km/h 43% 0in /  0.0mm CLR
19:44 73.8 °F /  23.2 °C 50.5 °F /  10.3 °C 30.1in /  1020.5hPa NE 8.1mph /  13.0km/h 13.8mph /  22.2km/h 44% 0in /  0.0mm CLR
19:49 73.8 °F /  23.2 °C 49.8 °F /  9.9 °C 30.1in /  1020.6hPa NNE 9.2mph /  14.8km/h 15mph /  24.1km/h 43% 0in /  0.0mm CLR
19:54 73.4 °F /  23.0 °C 50.2 °F /  10.1 °C 30.1in /  1020.6hPa NNE 9.2mph /  14.8km/h 13.8mph /  22.2km/h 44% 0in /  0.0mm CLR
19:59 73.2 °F /  22.9 °C 49.5 °F /  9.7 °C 30.1in /  1020.6hPa East 10mph /  16.1km/h 16.1mph /  25.9km/h 43% 0in /  0.0mm CLR
20:04 73.2 °F /  22.9 °C 50 °F /  10.0 °C 30.1in /  1020.5hPa NE 10mph /  16.1km/h 16.1mph /  25.9km/h 44% 0in /  0.0mm CLR
20:09 73 °F /  22.8 °C 49.3 °F /  9.6 °C 30.1in /  1020.5hPa ENE 8.5mph /  13.7km/h 15mph /  24.1km/h 43% 0in /  0.0mm CLR
20:14 72.9 °F /  22.7 °C 49.6 °F /  9.8 °C 30.1in /  1020.5hPa NE 8.5mph /  13.7km/h 12.7mph /  20.4km/h 44% 0in /  0.0mm CLR
20:19 72.9 °F /  22.7 °C 49.6 °F /  9.8 °C 30.1in /  1020.5hPa NE 8.1mph /  13.0km/h 8.1mph /  13.0km/h 44% 0in /  0.0mm CLR
20:24 72.9 °F /  22.7 °C 49.1 °F /  9.5 °C 30.1in /  1020.5hPa NNE 8.1mph /  13.0km/h 10.4mph /  16.7km/h 43% 0in /  0.0mm CLR
20:29 72.5 °F /  22.5 °C 48.7 °F /  9.3 °C 30.1in /  1020.5hPa NNE 8.1mph /  13.0km/h 9.2mph /  14.8km/h 43% 0in /  0.0mm CLR
20:34 72.1 °F /  22.3 °C 48.4 °F /  9.1 °C 30.1in /  1020.5hPa ENE 8.1mph /  13.0km/h 15mph /  24.1km/h 43% 0in /  0.0mm CLR
20:39 72.1 °F /  22.3 °C 48.9 °F /  9.4 °C 30.1in /  1020.5hPa NE 7.6mph /  12.2km/h 9.2mph /  14.8km/h 44% 0in /  0.0mm CLR
20:44 72 °F /  22.2 °C 48.9 °F /  9.4 °C 30.1in /  1020.5hPa NE 7.6mph /  12.2km/h 11.5mph /  18.5km/h 44% 0in /  0.0mm CLR
20:49 71.8 °F /  22.1 °C 48 °F /  8.9 °C 30.1in /  1020.6hPa NE 6.9mph /  11.1km/h 11.5mph /  18.5km/h 43% 0in /  0.0mm CLR
20:54 71.8 °F /  22.1 °C 48 °F /  8.9 °C 30.1in /  1020.6hPa NE 6.9mph /  11.1km/h 11.5mph /  18.5km/h 43% 0in /  0.0mm CLR
20:59 71.4 °F /  21.9 °C 47.7 °F /  8.7 °C 30.1in /  1020.6hPa NE 6.9mph /  11.1km/h 10.4mph /  16.7km/h 43% 0in /  0.0mm CLR
21:04 71.4 °F /  21.9 °C 48.4 °F /  9.1 °C 30.1in /  1020.6hPa NE 6.9mph /  11.1km/h 11.8mph /  19.0km/h 44% 0in /  0.0mm CLR
21:09 71.2 °F /  21.8 °C 48.2 °F /  9.0 °C 30.1in /  1020.6hPa NNE 7.6mph /  12.2km/h 9.2mph /  14.8km/h 44% 0in /  0.0mm CLR
21:14 71.1 °F /  21.7 °C 48 °F /  8.9 °C 30.1in /  1020.6hPa ENE 7.6mph /  12.2km/h 6.9mph /  11.1km/h 44% 0in /  0.0mm CLR
21:19 70.9 °F /  21.6 °C 48.6 °F /  9.2 °C 30.1in /  1020.7hPa ENE 5.2mph /  8.4km/h 9.2mph /  14.8km/h 45% 0in /  0.0mm CLR
21:24 70.9 °F /  21.6 °C 48.6 °F /  9.2 °C 30.1in /  1020.7hPa NE 5.2mph /  8.4km/h 6.9mph /  11.1km/h 45% 0in /  0.0mm CLR
21:29 70.5 °F /  21.4 °C 48.7 °F /  9.3 °C 30.1in /  1020.7hPa NE 4.7mph /  7.6km/h 9.2mph /  14.8km/h 46% 0in /  0.0mm CLR
21:34 70.3 °F /  21.3 °C 48.6 °F /  9.2 °C 30.1in /  1020.8hPa ENE 4.7mph /  7.6km/h 6.9mph /  11.1km/h 46% 0in /  0.0mm CLR
21:39 70.2 °F /  21.2 °C 48.4 °F /  9.1 °C 30.1in /  1020.8hPa NNE 5.4mph /  8.7km/h 7.4mph /  11.9km/h 46% 0in /  0.0mm CLR
21:44 69.8 °F /  21.0 °C 48.7 °F /  9.3 °C 30.1in /  1020.8hPa NE 5.4mph /  8.7km/h 8.1mph /  13.0km/h 47% 0in /  0.0mm CLR
21:49 69.6 °F /  20.9 °C 48.6 °F /  9.2 °C 30.2in /  1020.9hPa NE 5.4mph /  8.7km/h 8.1mph /  13.0km/h 47% 0in /  0.0mm CLR
21:54 69.6 °F /  20.9 °C 49.1 °F /  9.5 °C 30.2in /  1020.9hPa NE 5.4mph /  8.7km/h 6.4mph /  10.3km/h 48% 0in /  0.0mm CLR
21:59 69.4 °F /  20.8 °C 49.5 °F /  9.7 °C 30.2in /  1020.9hPa NE 5.2mph /  8.4km/h 5.8mph /  9.3km/h 49% 0in /  0.0mm CLR
22:04 69.3 °F /  20.7 °C 49.8 °F /  9.9 °C 30.2in /  1021.0hPa ENE 5.2mph /  8.4km/h 5.8mph /  9.3km/h 50% 0in /  0.0mm CLR
22:09 69.1 °F /  20.6 °C 49.6 °F /  9.8 °C 30.2in /  1021.0hPa NNE 4mph /  6.4km/h 5.8mph /  9.3km/h 50% 0in /  0.0mm CLR
22:14 68.7 °F /  20.4 °C 49.8 °F /  9.9 °C 30.2in /  1021.0hPa NE 4mph /  6.4km/h 6.4mph /  10.3km/h 51% 0in /  0.0mm CLR
22:19 68.5 °F /  20.3 °C 50.7 °F /  10.4 °C 30.2in /  1021.2hPa ENE 4.3mph /  6.9km/h 5.9mph /  9.5km/h 53% 0in /  0.0mm CLR
22:24 68.5 °F /  20.3 °C 50.7 °F /  10.4 °C 30.2in /  1021.2hPa NE 4.3mph /  6.9km/h 5.8mph /  9.3km/h 53% 0in /  0.0mm CLR
22:29 68.4 °F /  20.2 °C 51.1 °F /  10.6 °C 30.2in /  1021.2hPa NE 3.6mph /  5.8km/h 5.8mph /  9.3km/h 54% 0in /  0.0mm CLR
22:34 68.2 °F /  20.1 °C 51.4 °F /  10.8 °C 30.2in /  1021.2hPa NE 3.6mph /  5.8km/h 5.8mph /  9.3km/h 55% 0in /  0.0mm CLR
22:39 68.2 °F /  20.1 °C 52 °F /  11.1 °C 30.2in /  1021.2hPa NE 3.6mph /  5.8km/h 5.8mph /  9.3km/h 56% 0in /  0.0mm CLR
22:44 68 °F /  20.0 °C 51.6 °F /  10.9 °C 30.2in /  1021.2hPa NE 3.6mph /  5.8km/h 5.4mph /  8.7km/h 56% 0in /  0.0mm CLR
22:49 67.8 °F /  19.9 °C 51.4 °F /  10.8 °C 30.2in /  1021.5hPa East 3.6mph /  5.8km/h 4.6mph /  7.4km/h 56% 0in /  0.0mm CLR
22:54 67.8 °F /  19.9 °C 52 °F /  11.1 °C 30.2in /  1021.5hPa ENE 3.6mph /  5.8km/h 4.6mph /  7.4km/h 57% 0in /  0.0mm CLR
22:59 67.8 °F /  19.9 °C 52 °F /  11.1 °C 30.2in /  1021.5hPa East 2.9mph /  4.7km/h 4.7mph /  7.6km/h 57% 0in /  0.0mm CLR
23:04 67.8 °F /  19.9 °C 52.5 °F /  11.4 °C 30.2in /  1021.6hPa ENE 2.9mph /  4.7km/h 3.5mph /  5.6km/h 58% 0in /  0.0mm CLR
23:09 67.6 °F /  19.8 °C 52.3 °F /  11.3 °C 30.2in /  1021.6hPa NE 2.9mph /  4.7km/h 4.6mph /  7.4km/h 58% 0in /  0.0mm CLR
23:14 67.6 °F /  19.8 °C 52.9 °F /  11.6 °C 30.2in /  1021.6hPa NNE 2.9mph /  4.7km/h 5.2mph /  8.4km/h 59% 0in /  0.0mm CLR
23:19 67.5 °F /  19.7 °C 52.5 °F /  11.4 °C 30.2in /  1021.6hPa East 3.1mph /  5.0km/h 4.6mph /  7.4km/h 59% 0in /  0.0mm CLR
23:24 67.5 °F /  19.7 °C 53.1 °F /  11.7 °C 30.2in /  1021.6hPa ENE 3.1mph /  5.0km/h 4.6mph /  7.4km/h 60% 0in /  0.0mm CLR
23:29 67.5 °F /  19.7 °C 52.5 °F /  11.4 °C 30.2in /  1021.6hPa East 2.4mph /  3.9km/h 4.6mph /  7.4km/h 59% 0in /  0.0mm CLR
23:34 67.5 °F /  19.7 °C 52.5 °F /  11.4 °C 30.2in /  1021.7hPa NNE 2.4mph /  3.9km/h 5.4mph /  8.7km/h 59% 0in /  0.0mm CLR
23:39 67.3 °F /  19.6 °C 52.5 °F /  11.4 °C 30.2in /  1021.7hPa ENE 2.9mph /  4.7km/h 4.6mph /  7.4km/h 59% 0in /  0.0mm CLR
23:44 67.1 °F /  19.5 °C 52.7 °F /  11.5 °C 30.2in /  1021.7hPa ESE 2.9mph /  4.7km/h 4.6mph /  7.4km/h 60% 0in /  0.0mm CLR
23:49 66.9 °F /  19.4 °C 52.5 °F /  11.4 °C 30.2in /  1021.7hPa ESE 2mph /  3.2km/h 4.6mph /  7.4km/h 60% 0in /  0.0mm CLR
23:54 66.9 °F /  19.4 °C 52.5 °F /  11.4 °C 30.2in /  1021.7hPa ESE 2mph /  3.2km/h 2.3mph /  3.7km/h 60% 0in /  0.0mm CLR
23:59 66.7 °F /  19.3 °C 52.9 °F /  11.6 °C 30.2in /  1021.7hPa ESE 1.4mph /  2.3km/h 2.3mph /  3.7km/h 61% 0in /  0.0mm CLR
Murcia-Puente Tocinos, España
Compliments of Weather Underground - 2.75 mb

La estación de MeteoMurcia.com, publica sus datos en los siguientes proyectos:

Weather Underground PWS IMURCIAP2 Meteoclimatic www.awekas.at

W3Counter
Web Analytics